createdAt,value
2023-05-01T00:01:43.007Z,19.10
2023-05-01T00:04:37.345Z,19.10
2023-05-01T00:07:32.466Z,19.10
2023-05-01T00:10:26.809Z,19.10
2023-05-01T00:13:23.109Z,19.10
2023-05-01T00:16:18.957Z,19.10
2023-05-01T00:19:13.588Z,19.20
2023-05-01T00:22:07.882Z,19.20
2023-05-01T00:25:02.135Z,19.20
2023-05-01T00:27:56.429Z,19.30
2023-05-01T00:30:50.710Z,19.40
2023-05-01T00:33:44.876Z,19.40
2023-05-01T00:36:39.210Z,19.40
2023-05-01T00:39:33.576Z,19.40
2023-05-01T00:42:27.751Z,19.40
2023-05-01T00:45:22.574Z,19.50
2023-05-01T00:48:17.490Z,19.50
2023-05-01T00:51:12.256Z,19.50
2023-05-01T00:54:07.959Z,19.50
2023-05-01T00:57:02.262Z,19.50
2023-05-01T00:59:56.575Z,19.50
2023-05-01T01:02:51.735Z,19.50
2023-05-01T01:05:53.466Z,19.30
2023-05-01T01:09:14.463Z,19.30
2023-05-01T01:12:18.417Z,19.30
2023-05-01T01:15:34.663Z,19.20
2023-05-01T01:18:58.950Z,19.30
2023-05-01T01:22:00.362Z,19.10
2023-05-01T01:25:00.715Z,19.10
2023-05-01T01:28:03.813Z,19.20
2023-05-01T01:31:30.465Z,19.30
2023-05-01T01:34:34.330Z,19.40
2023-05-01T01:37:57.344Z,19.50
2023-05-01T01:41:32.420Z,19.60
2023-05-01T01:44:43.181Z,19.70
2023-05-01T01:47:38.261Z,19.80
2023-05-01T01:50:33.734Z,19.80
2023-05-01T01:53:31.237Z,19.90
2023-05-01T01:56:29.384Z,20.00
2023-05-01T01:59:25.825Z,20.00
2023-05-01T02:02:22.201Z,20.10
2023-05-01T02:05:18.573Z,20.20
2023-05-01T02:08:14.813Z,20.20
2023-05-01T02:11:10.896Z,20.20
2023-05-01T02:14:05.851Z,20.20
2023-05-01T02:17:01.121Z,20.30
2023-05-01T02:19:58.395Z,20.30
2023-05-01T02:22:56.367Z,20.40
2023-05-01T02:25:52.305Z,20.50
2023-05-01T02:28:46.911Z,20.50
2023-05-01T02:31:41.505Z,20.60
2023-05-01T02:34:38.995Z,20.60
2023-05-01T02:37:33.470Z,20.70
2023-05-01T02:40:28.133Z,20.80
2023-05-01T02:43:24.102Z,20.80
2023-05-01T02:46:20.758Z,20.90
2023-05-01T02:49:15.415Z,21.00
2023-05-01T02:52:10.338Z,21.00
2023-05-01T02:55:05.018Z,20.90
2023-05-01T02:58:02.785Z,20.90
2023-05-01T03:00:57.013Z,21.10
2023-05-01T03:03:51.294Z,21.20
2023-05-01T03:06:45.771Z,21.30
2023-05-01T03:09:40.075Z,21.30
2023-05-01T03:12:34.260Z,21.40
2023-05-01T03:15:28.471Z,21.40
2023-05-01T03:18:22.715Z,21.50
2023-05-01T03:21:16.909Z,21.50
2023-05-01T03:24:11.365Z,21.60
2023-05-01T03:27:05.947Z,21.60
2023-05-01T03:30:00.057Z,21.60
2023-05-01T03:32:54.421Z,21.60
2023-05-01T03:35:49.222Z,21.60
2023-05-01T03:38:43.683Z,21.60
2023-05-01T03:41:37.849Z,21.60
2023-05-01T03:44:32.096Z,21.60
2023-05-01T03:47:26.222Z,21.60
2023-05-01T03:50:20.493Z,21.50
2023-05-01T03:53:15.248Z,21.60
2023-05-01T03:56:09.567Z,21.60
2023-05-01T03:59:04.280Z,21.60
2023-05-01T04:01:58.614Z,21.50
2023-05-01T04:04:53.250Z,21.60
2023-05-01T04:07:47.626Z,21.60
2023-05-01T04:10:41.830Z,21.70
2023-05-01T04:13:36.156Z,21.60
2023-05-01T04:16:30.350Z,21.70
2023-05-01T04:19:24.507Z,21.60
2023-05-01T04:22:18.727Z,21.60
2023-05-01T04:25:13.076Z,21.70
2023-05-01T04:28:07.249Z,21.70
2023-05-01T04:31:01.983Z,21.70
2023-05-01T04:33:56.105Z,21.70
2023-05-01T04:36:50.322Z,21.70
2023-05-01T04:39:44.478Z,21.80
2023-05-01T04:42:38.783Z,21.80
2023-05-01T04:45:33.630Z,21.80
2023-05-01T04:48:27.809Z,21.90
2023-05-01T04:51:22.285Z,21.80
2023-05-01T04:54:16.480Z,21.80
2023-05-01T04:57:10.924Z,21.80
2023-05-01T05:00:05.530Z,21.80
2023-05-01T05:02:59.958Z,21.80
2023-05-01T05:05:54.220Z,21.80
2023-05-01T05:08:48.387Z,21.80
2023-05-01T05:11:42.625Z,21.80
2023-05-01T05:14:36.814Z,21.80
2023-05-01T05:17:31.061Z,21.70
2023-05-01T05:20:25.402Z,21.80
2023-05-01T05:23:19.566Z,21.70
2023-05-01T05:26:13.706Z,21.70
2023-05-01T05:29:08.053Z,21.70
2023-05-01T05:32:02.812Z,21.60
2023-05-01T05:34:57.660Z,21.70
2023-05-01T05:37:51.850Z,21.70
2023-05-01T05:40:46.066Z,21.80
2023-05-01T05:43:40.286Z,21.70
2023-05-01T05:46:34.533Z,21.70
2023-05-01T05:49:28.659Z,21.70
2023-05-01T05:52:23.097Z,21.70
2023-05-01T05:55:17.482Z,21.70
2023-05-01T05:58:11.620Z,21.70
2023-05-01T06:01:06.928Z,21.60
2023-05-01T06:04:01.173Z,21.50
2023-05-01T06:06:55.733Z,21.50
2023-05-01T06:09:50.015Z,21.50
2023-05-01T06:12:47.496Z,21.50
2023-05-01T06:15:51.613Z,21.50
2023-05-01T06:18:46.076Z,21.50
2023-05-01T06:21:40.653Z,21.50
2023-05-01T06:24:34.926Z,21.50
2023-05-01T06:27:29.192Z,21.40
2023-05-01T06:30:23.495Z,21.40
2023-05-01T06:33:17.693Z,21.40
2023-05-01T06:36:11.918Z,21.30
2023-05-01T06:39:06.152Z,21.30
2023-05-01T06:42:00.399Z,21.30
2023-05-01T06:44:54.723Z,21.20
2023-05-01T06:47:48.893Z,20.90
2023-05-01T06:50:43.244Z,20.70
2023-05-01T06:53:38.048Z,20.60
2023-05-01T06:56:33.639Z,20.50
2023-05-01T06:59:27.855Z,20.40
2023-05-01T07:02:22.262Z,20.40
2023-05-01T07:05:16.585Z,20.40
2023-05-01T07:08:11.668Z,20.30
2023-05-01T07:11:05.915Z,20.40
2023-05-01T07:14:00.225Z,20.40
2023-05-01T07:16:54.401Z,20.50
2023-05-01T07:19:48.703Z,20.50
2023-05-01T07:22:42.916Z,20.50
2023-05-01T07:25:38.934Z,20.40
2023-05-01T07:28:33.333Z,20.40
2023-05-01T07:31:27.475Z,20.40
2023-05-01T07:34:21.719Z,20.40
2023-05-01T07:37:15.940Z,20.20
2023-05-01T07:40:10.466Z,20.20
2023-05-01T07:43:05.204Z,20.20
2023-05-01T07:46:03.381Z,20.20
2023-05-01T07:48:57.621Z,20.30
2023-05-01T07:51:51.820Z,20.30
2023-05-01T07:54:51.188Z,20.30
2023-05-01T07:57:45.445Z,20.20
2023-05-01T08:00:39.697Z,20.20
2023-05-01T08:03:34.089Z,20.20
2023-05-01T08:06:29.467Z,20.20
2023-05-01T08:09:23.696Z,20.20
2023-05-01T08:12:17.965Z,20.10
2023-05-01T08:15:12.545Z,20.10
2023-05-01T08:18:07.200Z,20.00
2023-05-01T08:21:01.397Z,20.00
2023-05-01T08:24:00.516Z,20.00
2023-05-01T08:26:54.609Z,19.90
2023-05-01T08:29:48.904Z,19.80
2023-05-01T08:32:43.102Z,19.80
2023-05-01T08:35:37.618Z,19.80
2023-05-01T08:38:31.946Z,19.70
2023-05-01T08:41:26.658Z,19.70
2023-05-01T08:44:22.606Z,19.60
2023-05-01T08:47:19.194Z,19.60
2023-05-01T08:50:14.476Z,19.60
2023-05-01T08:53:10.105Z,19.50
2023-05-01T08:56:08.897Z,19.50
2023-05-01T08:59:05.550Z,19.40
2023-05-01T09:02:05.603Z,19.40
2023-05-01T09:05:05.085Z,19.40
2023-05-01T09:08:01.023Z,19.30
2023-05-01T09:10:57.572Z,19.30
2023-05-01T09:13:52.355Z,19.30
2023-05-01T09:16:46.745Z,19.20
2023-05-01T09:19:42.290Z,19.20
2023-05-01T09:22:37.746Z,19.20
2023-05-01T09:25:32.628Z,19.10
2023-05-01T09:28:46.919Z,19.10
2023-05-01T09:31:41.091Z,19.00
2023-05-01T09:34:35.220Z,19.10
2023-05-01T09:37:33.327Z,19.00
2023-05-01T09:40:30.527Z,19.00
2023-05-01T09:43:31.567Z,19.00
2023-05-01T09:46:27.277Z,19.00
2023-05-01T09:49:21.771Z,19.00
2023-05-01T09:52:16.598Z,19.00
2023-05-01T09:55:18.634Z,19.00
2023-05-01T09:58:29.502Z,18.90
2023-05-01T10:01:43.993Z,19.00
2023-05-01T10:04:38.138Z,19.00
2023-05-01T10:07:32.950Z,19.00
2023-05-01T10:10:27.394Z,19.00
2023-05-01T10:13:21.659Z,18.90
2023-05-01T10:16:32.426Z,19.00
2023-05-01T10:19:26.932Z,18.90
2023-05-01T10:22:21.288Z,18.90
2023-05-01T10:25:16.282Z,18.90
2023-05-01T10:28:12.475Z,18.80
2023-05-01T10:31:07.266Z,18.80
2023-05-01T10:34:03.169Z,18.80
2023-05-01T10:37:02.622Z,18.70
2023-05-01T10:39:56.828Z,18.80
2023-05-01T10:43:20.087Z,18.70
2023-05-01T10:46:22.127Z,18.70
2023-05-01T10:49:16.293Z,18.70
2023-05-01T10:52:10.470Z,18.70
2023-05-01T10:55:35.640Z,18.70
2023-05-01T10:58:42.123Z,18.70
2023-05-01T11:01:46.017Z,18.60
2023-05-01T11:04:52.418Z,18.60
2023-05-01T11:07:47.724Z,18.60
2023-05-01T11:10:41.905Z,18.60
2023-05-01T11:14:03.772Z,18.60
2023-05-01T11:16:58.111Z,18.60
2023-05-01T11:19:53.594Z,18.60
2023-05-01T11:22:48.560Z,18.50
2023-05-01T11:25:42.890Z,18.50
2023-05-01T11:28:39.079Z,18.60
2023-05-01T11:31:33.664Z,18.50
2023-05-01T11:34:28.518Z,18.50
2023-05-01T11:37:43.620Z,18.50
2023-05-01T11:40:38.188Z,18.50
2023-05-01T11:43:33.160Z,18.50
2023-05-01T11:46:34.923Z,18.50
2023-05-01T11:49:30.187Z,18.50
2023-05-01T11:52:24.356Z,18.50
2023-05-01T11:55:18.997Z,18.50
2023-05-01T11:58:14.010Z,18.50
2023-05-01T12:01:08.961Z,18.50
2023-05-01T12:04:03.958Z,18.50
2023-05-01T12:06:58.337Z,18.50
2023-05-01T12:09:53.402Z,18.50
2023-05-01T12:12:47.737Z,18.50
2023-05-01T12:15:47.273Z,18.50
2023-05-01T12:18:41.609Z,18.50
2023-05-01T12:21:37.788Z,18.60
2023-05-01T12:24:31.949Z,18.60
2023-05-01T12:27:26.181Z,18.50
2023-05-01T12:30:28.098Z,18.60
2023-05-01T12:33:23.516Z,18.50
2023-05-01T12:36:19.132Z,18.50
2023-05-01T12:39:14.032Z,18.60
2023-05-01T12:42:18.084Z,18.60
2023-05-01T12:45:15.923Z,18.60
2023-05-01T12:48:16.311Z,18.50
2023-05-01T12:51:10.609Z,18.50
2023-05-01T12:54:04.792Z,18.50
2023-05-01T12:57:19.141Z,18.50
2023-05-01T13:00:14.367Z,18.50
2023-05-01T13:03:08.897Z,18.50
2023-05-01T13:06:07.068Z,18.50
2023-05-01T13:09:11.826Z,18.50
2023-05-01T13:12:07.954Z,18.60
2023-05-01T13:15:02.400Z,18.50
2023-05-01T13:18:07.812Z,18.50
2023-05-01T13:21:12.627Z,18.50
2023-05-01T13:24:07.086Z,18.60
2023-05-01T13:27:04.357Z,18.50
2023-05-01T13:30:01.142Z,18.50
2023-05-01T13:32:55.855Z,18.50
2023-05-01T13:35:49.989Z,18.50
2023-05-01T13:38:47.462Z,18.60
2023-05-01T13:41:44.607Z,18.60
2023-05-01T13:44:53.364Z,18.50
2023-05-01T13:47:47.544Z,18.50
2023-05-01T13:50:43.628Z,18.50
2023-05-01T13:53:38.418Z,18.50
2023-05-01T13:56:35.676Z,18.40
2023-05-01T13:59:38.256Z,18.40
2023-05-01T14:02:32.638Z,18.30
2023-05-01T14:05:30.190Z,18.30
2023-05-01T14:08:29.637Z,18.30
2023-05-01T14:11:23.903Z,18.30
2023-05-01T14:14:19.913Z,18.20
2023-05-01T14:17:14.423Z,18.10
2023-05-01T14:20:09.936Z,18.10
2023-05-01T14:23:04.584Z,18.00
2023-05-01T14:25:58.743Z,17.90
2023-05-01T14:28:53.195Z,17.90
2023-05-01T14:31:47.548Z,17.90
2023-05-01T14:34:47.449Z,17.90
2023-05-01T14:37:41.613Z,17.90
2023-05-01T14:40:36.751Z,17.90
2023-05-01T14:43:30.965Z,17.90
2023-05-01T14:46:31.859Z,17.90
2023-05-01T14:49:27.244Z,17.90
2023-05-01T14:52:24.462Z,17.90
2023-05-01T14:55:19.981Z,17.90
2023-05-01T14:58:14.066Z,17.90
2023-05-01T15:01:08.293Z,17.90
2023-05-01T15:04:03.616Z,17.80
2023-05-01T15:06:58.362Z,17.80
2023-05-01T15:09:53.014Z,17.80
2023-05-01T15:12:47.794Z,17.80
2023-05-01T15:15:41.947Z,17.70
2023-05-01T15:18:37.696Z,17.70
2023-05-01T15:21:32.828Z,17.70
2023-05-01T15:24:26.999Z,17.70
2023-05-01T15:27:21.211Z,17.60
2023-05-01T15:30:17.475Z,17.60
2023-05-01T15:33:11.660Z,17.60
2023-05-01T15:36:06.008Z,17.50
2023-05-01T15:39:00.180Z,17.50
2023-05-01T15:41:54.556Z,17.50
2023-05-01T15:44:49.952Z,17.50
2023-05-01T15:47:44.245Z,17.40
2023-05-01T15:50:38.391Z,17.40
2023-05-01T15:53:32.627Z,17.30
2023-05-01T15:56:26.766Z,17.30
2023-05-01T15:59:20.907Z,17.30
2023-05-01T16:02:15.103Z,17.30
2023-05-01T16:05:09.856Z,17.30
2023-05-01T16:08:05.547Z,17.30
2023-05-01T16:10:59.686Z,17.30
2023-05-01T16:13:57.514Z,17.30
2023-05-01T16:16:52.230Z,17.30
2023-05-01T16:19:46.620Z,17.30
2023-05-01T16:22:44.938Z,17.20
2023-05-01T16:25:43.275Z,17.20
2023-05-01T16:28:37.656Z,17.20
2023-05-01T16:31:40.766Z,17.20
2023-05-01T16:34:35.117Z,17.20
2023-05-01T16:37:29.342Z,17.20
2023-05-01T16:40:24.414Z,17.20
2023-05-01T16:43:18.652Z,17.20
2023-05-01T16:46:13.765Z,17.20
2023-05-01T16:49:08.065Z,17.20
2023-05-01T16:52:03.993Z,17.20
2023-05-01T16:55:00.190Z,17.20
2023-05-01T16:57:55.576Z,17.20
2023-05-01T17:00:49.685Z,17.20
2023-05-01T17:03:43.876Z,17.30
2023-05-01T17:06:38.299Z,17.30
2023-05-01T17:09:32.491Z,17.20
2023-05-01T17:12:26.884Z,17.30
2023-05-01T17:15:21.102Z,17.30
2023-05-01T17:18:15.321Z,17.30
2023-05-01T17:21:10.956Z,17.40
2023-05-01T17:24:05.789Z,17.40
2023-05-01T17:27:00.024Z,17.40
2023-05-01T17:29:54.130Z,17.40
2023-05-01T17:32:48.608Z,17.40
2023-05-01T17:35:42.763Z,17.40
2023-05-01T17:38:37.640Z,17.40
2023-05-01T17:41:32.000Z,17.40
2023-05-01T17:44:26.255Z,17.50
2023-05-01T17:47:20.496Z,17.50
2023-05-01T17:50:15.271Z,17.50
2023-05-01T17:53:10.607Z,17.50
2023-05-01T17:56:05.032Z,17.50
2023-05-01T17:58:59.184Z,17.60
2023-05-01T18:01:53.433Z,17.60
2023-05-01T18:04:51.279Z,17.60
2023-05-01T18:07:45.455Z,17.60
2023-05-01T18:10:40.475Z,17.60
2023-05-01T18:13:39.280Z,17.60
2023-05-01T18:16:33.645Z,17.60
2023-05-01T18:19:27.761Z,17.70
2023-05-01T18:22:21.868Z,17.70
2023-05-01T18:25:18.457Z,17.70
2023-05-01T18:28:12.681Z,17.70
2023-05-01T18:31:06.919Z,17.80
2023-05-01T18:34:01.221Z,17.80
2023-05-01T18:36:55.925Z,17.80
2023-05-01T18:39:50.039Z,17.80
2023-05-01T18:42:44.586Z,17.80
2023-05-01T18:45:38.748Z,17.80
2023-05-01T18:48:32.861Z,17.90
2023-05-01T18:51:26.992Z,17.90
2023-05-01T18:54:21.184Z,17.90
2023-05-01T18:57:15.535Z,17.90
2023-05-01T19:00:10.490Z,17.90
2023-05-01T19:03:04.752Z,18.00
2023-05-01T19:05:59.605Z,18.00
2023-05-01T19:08:53.961Z,18.00
2023-05-01T19:11:48.267Z,18.00
2023-05-01T19:14:42.702Z,18.00
2023-05-01T19:17:37.261Z,18.00
2023-05-01T19:20:31.574Z,18.10
2023-05-01T19:23:25.997Z,18.10
2023-05-01T19:26:20.141Z,18.00
2023-05-01T19:29:14.372Z,18.00
2023-05-01T19:32:09.190Z,18.00
2023-05-01T19:35:03.636Z,18.00
2023-05-01T19:37:58.979Z,18.10
2023-05-01T19:40:53.461Z,18.10
2023-05-01T19:43:47.640Z,18.10
2023-05-01T19:46:41.865Z,18.10
2023-05-01T19:49:36.338Z,18.10
2023-05-01T19:52:31.666Z,18.20
2023-05-01T19:55:25.805Z,18.10
2023-05-01T19:58:19.927Z,18.20
2023-05-01T20:01:14.376Z,18.10
2023-05-01T20:04:08.643Z,18.10
2023-05-01T20:07:03.977Z,18.10
2023-05-01T20:09:58.581Z,18.00
2023-05-01T20:12:52.914Z,18.00
2023-05-01T20:15:47.060Z,18.00
2023-05-01T20:18:41.242Z,18.00
2023-05-01T20:21:35.393Z,18.00
2023-05-01T20:24:29.551Z,18.00
2023-05-01T20:27:25.874Z,17.90
2023-05-01T20:30:20.068Z,17.90
2023-05-01T20:33:15.138Z,17.90
2023-05-01T20:36:09.476Z,17.90
2023-05-01T20:39:03.628Z,17.90
2023-05-01T20:42:00.236Z,17.90
2023-05-01T20:44:54.372Z,17.90
2023-05-01T20:47:49.522Z,17.90
2023-05-01T20:50:44.901Z,17.90
2023-05-01T20:53:39.713Z,17.80
2023-05-01T20:56:33.868Z,17.80
2023-05-01T20:59:28.022Z,17.80
2023-05-01T21:02:22.187Z,17.70
2023-05-01T21:05:17.471Z,17.70
2023-05-01T21:08:11.602Z,17.70
2023-05-01T21:11:05.707Z,17.60
2023-05-01T21:14:00.109Z,17.60
2023-05-01T21:16:54.813Z,17.60
2023-05-01T21:19:49.471Z,17.60
2023-05-01T21:22:46.644Z,17.50
2023-05-01T21:25:40.790Z,17.50
2023-05-01T21:28:34.940Z,17.50
2023-05-01T21:31:37.749Z,17.50
2023-05-01T21:34:31.857Z,17.50
2023-05-01T21:37:26.072Z,17.50
2023-05-01T21:40:20.859Z,17.50
2023-05-01T21:43:15.485Z,17.50
2023-05-01T21:46:16.044Z,17.50
2023-05-01T21:49:12.913Z,17.50
2023-05-01T21:52:09.913Z,17.50
2023-05-01T21:55:10.878Z,17.50
2023-05-01T21:58:05.295Z,17.50
2023-05-01T22:00:59.548Z,17.50
2023-05-01T22:03:54.086Z,17.50
2023-05-01T22:06:48.343Z,17.50
2023-05-01T22:09:42.512Z,17.50
2023-05-01T22:12:37.001Z,17.60
2023-05-01T22:15:31.144Z,17.60
2023-05-01T22:18:25.301Z,17.60
2023-05-01T22:21:19.440Z,17.70
2023-05-01T22:24:13.616Z,17.70
2023-05-01T22:27:07.875Z,17.80
2023-05-01T22:30:02.625Z,17.90
2023-05-01T22:32:57.248Z,18.00
2023-05-01T22:35:51.559Z,18.00
2023-05-01T22:38:45.680Z,18.10
2023-05-01T22:41:39.886Z,18.20
2023-05-01T22:44:34.519Z,18.20
2023-05-01T22:47:28.913Z,18.30
2023-05-01T22:50:23.382Z,18.40
2023-05-01T22:53:17.540Z,18.40
2023-05-01T22:56:11.649Z,18.40
2023-05-01T22:59:05.753Z,18.50
2023-05-01T23:02:00.021Z,18.50
2023-05-01T23:04:54.291Z,18.50
2023-05-01T23:07:48.468Z,18.50
2023-05-01T23:10:43.869Z,18.50
2023-05-01T23:13:38.494Z,18.60
2023-05-01T23:16:46.016Z,18.60
2023-05-01T23:19:41.701Z,18.70
2023-05-01T23:22:41.410Z,19.10
2023-05-01T23:25:35.466Z,19.10
2023-05-01T23:28:30.435Z,19.20
2023-05-01T23:31:28.775Z,19.10
2023-05-01T23:34:22.909Z,19.10
2023-05-01T23:37:17.007Z,19.10
2023-05-01T23:40:11.481Z,19.10
2023-05-01T23:43:05.638Z,19.10
2023-05-01T23:46:00.186Z,19.10
2023-05-01T23:48:54.281Z,19.00
2023-05-01T23:51:48.457Z,19.10
2023-05-01T23:54:43.075Z,19.10
2023-05-01T23:57:37.277Z,19.20
